Terminal Aerodrome Forecast
Issued by NWS

Home | Current Version | Previous Version | Text Only | Print | Product List | Glossary On
Versions: 1 2 3 4 5 6 7 8 9 10 11 12 13 14 15 16 17 18 19 20 21 22 23 24 25 26 27 28 29 30 31 32
000
FTUS41 KCAR 200840 AAA
TAFFVE
TAF AMD
KFVE 200840Z 2009/2106 04005KT 2SM -SN OVC025
     FM201200 05006KT 1SM -SN OVC012
     FM201500 05009KT 1/2SM SN OVC005
     FM201800 05010G18KT 1/4SM +SN BLSN OVC005
     FM210000 04016G29KT 1/2SM SN BLSN OVC005
     FM210500 01014G26KT 1/2SM SN BLSN OVC007=

USA.gov is the U.S. government's official web portal to all federal, state and local government web resources and services.